Time;durP1;ratioP1;P1;durP2;ratioP2;P2;SDS_P1;SDS_P2;PMS_P1;PMS_P2;Temp;Humidity;BMP_temperature;BMP_pressure;BME280_temperature;BME280_humidity;BME280_pressure;Samples;Min_cycle;Max_cycle;Signal;HPM_P1;HPM_P2
2024/02/27 00:00:57;;;;;;;19.90;19.20;;;20.90;52.00;;;;;;4973535;28;20444;-59
2024/02/27 00:03:24;;;;;;;20.47;19.73;;;20.90;52.10;;;;;;4973002;28;20495;-59
2024/02/27 00:05:50;;;;;;;20.80;20.03;;;20.90;52.10;;;;;;4973157;28;20889;-59
2024/02/27 00:08:17;;;;;;;19.93;19.23;;;20.90;52.20;;;;;;4972937;28;20475;-61
2024/02/27 00:10:44;;;;;;;20.87;20.07;;;20.80;52.10;;;;;;4989057;28;20446;-59
2024/02/27 00:13:11;;;;;;;21.00;20.20;;;20.80;52.20;;;;;;4992492;28;20443;-60
2024/02/27 00:15:37;;;;;;;20.40;19.60;;;20.80;52.20;;;;;;4992583;28;20455;-58
2024/02/27 00:18:06;;;;;;;20.30;19.60;;;20.80;52.20;;;;;;4992194;28;20463;-58
2024/02/27 00:20:32;;;;;;;20.50;19.70;;;20.80;52.20;;;;;;4989666;28;20439;-59
2024/02/27 00:22:59;;;;;;;20.90;20.10;;;20.80;52.20;;;;;;4992246;28;20447;-59
2024/02/27 00:25:26;;;;;;;20.70;19.90;;;20.80;52.20;;;;;;4992593;28;20454;-61
2024/02/27 00:27:52;;;;;;;20.60;19.80;;;20.80;52.20;;;;;;4992101;28;20459;-58
2024/02/27 00:30:19;;;;;;;19.90;19.20;;;20.80;52.30;;;;;;4978776;28;20514;-61
2024/02/27 00:32:46;;;;;;;20.77;19.97;;;20.80;52.30;;;;;;4972893;28;20444;-58
2024/02/27 00:35:14;;;;;;;21.23;20.43;;;20.70;52.20;;;;;;4972791;28;20451;-58
2024/02/27 00:37:41;;;;;;;20.60;19.73;;;20.80;52.30;;;;;;4972688;28;20475;-61
2024/02/27 00:40:09;;;;;;;20.70;19.90;;;20.80;52.40;;;;;;4983154;28;20450;-59
2024/02/27 00:42:35;;;;;;;20.73;19.93;;;20.70;52.30;;;;;;4992154;28;20533;-61
2024/02/27 00:45:02;;;;;;;21.10;20.20;;;20.70;52.40;;;;;;4991974;28;21021;-61
2024/02/27 00:47:29;;;;;;;20.60;19.80;;;20.70;52.40;;;;;;4996024;28;20473;-58
2024/02/27 00:49:56;;;;;;;20.30;19.50;;;20.70;52.50;;;;;;4985911;28;20817;-58
2024/02/27 00:52:24;;;;;;;20.47;19.77;;;20.70;52.50;;;;;;4977279;28;20440;-59
2024/02/27 00:54:51;;;;;;;21.60;20.70;;;20.70;52.50;;;;;;4976309;28;20444;-59
2024/02/27 00:57:18;;;;;;;19.70;19.00;;;20.60;52.50;;;;;;4976168;28;20807;-59
2024/02/27 00:59:44;;;;;;;20.40;19.60;;;20.60;52.50;;;;;;4983078;28;20445;-59
2024/02/27 01:02:11;;;;;;;20.40;19.70;;;20.60;52.50;;;;;;4995756;28;20806;-60
2024/02/27 01:04:38;;;;;;;21.00;20.20;;;20.60;52.50;;;;;;4995375;28;20486;-59
2024/02/27 01:07:05;;;;;;;20.30;19.50;;;20.60;52.50;;;;;;4995283;28;20455;-60
2024/02/27 01:09:33;;;;;;;20.30;19.50;;;20.60;52.50;;;;;;4995565;28;21081;-62
2024/02/27 01:12:00;;;;;;;20.63;19.83;;;20.60;52.60;;;;;;4980177;28;20455;-61
2024/02/27 01:14:27;;;;;;;20.93;20.13;;;20.60;52.60;;;;;;4976310;28;20435;-62
2024/02/27 01:16:53;;;;;;;20.00;19.30;;;20.60;52.60;;;;;;4975835;28;20455;-62
2024/02/27 01:19:20;;;;;;;21.10;20.30;;;20.60;52.60;;;;;;4977176;28;20439;-62
2024/02/27 01:21:47;;;;;;;20.50;19.70;;;20.60;52.70;;;;;;4993872;28;20435;-63
2024/02/27 01:24:13;;;;;;;25.00;24.10;;;20.60;52.70;;;;;;4995305;28;20505;-62
2024/02/27 01:26:41;;;;;;;20.60;19.80;;;20.50;52.60;;;;;;4995191;28;20442;-61
2024/02/27 01:29:08;;;;;;;20.93;20.13;;;20.50;52.60;;;;;;4993251;28;20459;-61
2024/02/27 01:31:36;;;;;;;20.80;20.00;;;20.50;52.60;;;;;;4956148;28;20460;-60
2024/02/27 01:34:03;;;;;;;20.77;19.97;;;20.50;52.60;;;;;;4956306;28;20433;-62
2024/02/27 01:36:31;;;;;;;20.23;19.50;;;20.50;52.60;;;;;;4956370;28;20449;-63
2024/02/27 01:38:58;;;;;;;20.50;19.70;;;20.50;52.60;;;;;;4956927;28;20472;-61
2024/02/27 01:41:25;;;;;;;21.73;20.83;;;20.50;52.60;;;;;;4994588;28;20443;-62
2024/02/27 01:43:53;;;;;;;20.80;19.90;;;20.50;52.70;;;;;;4994872;28;20855;-62
2024/02/27 01:46:21;;;;;;;20.63;19.83;;;20.50;52.70;;;;;;4994935;28;20454;-62
2024/02/27 01:48:50;;;;;;;20.30;19.50;;;20.50;52.70;;;;;;4994888;28;20467;-61
2024/02/27 01:51:18;;;;;;;20.70;19.90;;;20.50;52.70;;;;;;4975652;28;20444;-61
2024/02/27 01:53:50;;;;;;;20.83;19.93;;;20.40;52.70;;;;;;4975241;28;20444;-61
2024/02/27 01:56:18;;;;;;;20.30;19.50;;;20.40;52.70;;;;;;4975439;28;20934;-61
2024/02/27 01:58:45;;;;;;;21.00;20.10;;;20.40;52.70;;;;;;4985531;28;20459;-62
2024/02/27 02:01:15;;;;;;;20.33;19.63;;;20.40;52.70;;;;;;4994565;28;20454;-63
2024/02/27 02:03:42;;;;;;;21.07;20.27;;;20.40;52.70;;;;;;4994632;28;20497;-62
2024/02/27 02:06:10;;;;;;;21.67;20.77;;;20.40;52.70;;;;;;4994659;28;20446;-62
2024/02/27 02:08:37;;;;;;;20.77;19.97;;;20.50;52.80;;;;;;4992516;28;20470;-60
2024/02/27 02:11:06;;;;;;;20.73;19.93;;;20.40;52.70;;;;;;4994531;28;20845;-62
2024/02/27 02:13:34;;;;;;;20.93;20.13;;;20.40;52.80;;;;;;4994717;28;20450;-61
2024/02/27 02:16:01;;;;;;;20.87;20.07;;;20.40;52.80;;;;;;4994834;28;20512;-62
2024/02/27 02:18:29;;;;;;;20.30;19.50;;;20.40;52.80;;;;;;4985135;28;20459;-62
2024/02/27 02:20:59;;;;;;;20.67;19.83;;;20.40;52.80;;;;;;4974771;28;20444;-63
2024/02/27 02:23:26;;;;;;;21.30;20.40;;;20.40;52.80;;;;;;4975303;28;20456;-63
2024/02/27 02:25:53;;;;;;;20.80;20.00;;;20.40;52.80;;;;;;4975224;28;20450;-62
2024/02/27 02:28:20;;;;;;;20.33;19.53;;;20.40;52.80;;;;;;4975682;28;20468;-62
2024/02/27 02:30:46;;;;;;;20.97;20.17;;;20.40;52.90;;;;;;4974491;28;20960;-62
2024/02/27 02:33:13;;;;;;;20.93;20.13;;;20.40;52.90;;;;;;4975054;28;20805;-61
2024/02/27 02:35:43;;;;;;;20.60;19.90;;;20.30;52.80;;;;;;4974888;28;20451;-63
2024/02/27 02:38:12;;;;;;;20.40;19.70;;;20.30;52.80;;;;;;4978685;28;20447;-63
2024/02/27 02:40:38;;;;;;;20.70;19.90;;;20.30;52.80;;;;;;4993911;28;20447;-62
2024/02/27 02:43:05;;;;;;;20.53;19.73;;;20.30;52.80;;;;;;4994242;28;20661;-62
2024/02/27 02:45:32;;;;;;;21.00;20.20;;;20.30;52.90;;;;;;4993615;28;20569;-62
2024/02/27 02:47:59;;;;;;;24.03;23.10;;;20.30;52.90;;;;;;4989420;28;20985;-62
2024/02/27 02:50:29;;;;;;;24.13;23.23;;;20.30;52.90;;;;;;4973912;28;20463;-61
2024/02/27 02:52:56;;;;;;;24.67;23.70;;;20.30;52.90;;;;;;4974270;28;20444;-62
2024/02/27 02:55:24;;;;;;;24.47;23.60;;;20.30;52.90;;;;;;4974148;28;20463;-61
2024/02/27 02:57:50;;;;;;;25.10;24.10;;;20.30;52.90;;;;;;4974998;28;20826;-62
2024/02/27 03:00:18;;;;;;;25.33;24.43;;;20.30;52.90;;;;;;4973722;28;20451;-62
2024/02/27 03:02:44;;;;;;;24.80;23.90;;;20.30;52.90;;;;;;4974249;28;20213;-61
2024/02/27 03:05:12;;;;;;;20.07;19.37;;;20.30;53.00;;;;;;4973843;28;21027;-61
2024/02/27 03:07:39;;;;;;;20.83;20.03;;;20.30;52.90;;;;;;4992101;28;20494;-62
2024/02/27 03:10:08;;;;;;;20.20;19.50;;;20.30;52.90;;;;;;4992819;28;20443;-62
2024/02/27 03:12:36;;;;;;;21.10;20.30;;;20.20;52.90;;;;;;4993158;28;20451;-61
2024/02/27 03:15:04;;;;;;;20.77;19.97;;;20.20;52.90;;;;;;4993084;28;21048;-61
2024/02/27 03:17:31;;;;;;;20.70;19.87;;;20.30;52.90;;;;;;4991444;28;20462;-61
2024/02/27 03:19:58;;;;;;;21.10;20.20;;;20.20;52.90;;;;;;4993014;28;20443;-62
2024/02/27 03:22:25;;;;;;;20.80;20.00;;;20.20;52.90;;;;;;4992929;28;20450;-62
2024/02/27 03:24:52;;;;;;;21.73;20.73;;;20.20;52.90;;;;;;4978696;28;20491;-62
2024/02/27 03:27:18;;;;;;;21.00;20.20;;;20.20;52.90;;;;;;4973740;28;20468;-61
2024/02/27 03:29:46;;;;;;;21.13;20.30;;;20.20;52.90;;;;;;4973259;28;20448;-61
2024/02/27 03:32:13;;;;;;;21.20;20.40;;;20.30;53.00;;;;;;4973489;28;20957;-60
2024/02/27 03:34:40;;;;;;;20.80;20.00;;;20.20;52.90;;;;;;4985349;28;20439;-62
2024/02/27 03:37:06;;;;;;;20.87;20.07;;;20.20;52.90;;;;;;4993230;28;20454;-62
2024/02/27 03:39:33;;;;;;;20.53;19.73;;;20.20;52.90;;;;;;4992800;28;20501;-61
2024/02/27 03:42:00;;;;;;;21.20;20.30;;;20.20;52.90;;;;;;4992300;28;20442;-61
2024/02/27 03:44:26;;;;;;;20.93;20.13;;;20.20;52.90;;;;;;4982455;28;20490;-61
2024/02/27 03:46:55;;;;;;;21.33;20.53;;;20.20;52.90;;;;;;4973473;28;20444;-62
2024/02/27 03:49:21;;;;;;;21.70;20.80;;;20.20;52.90;;;;;;4973377;28;20448;-62
2024/02/27 03:51:48;;;;;;;20.97;20.13;;;20.20;52.90;;;;;;4972881;28;20451;-61
2024/02/27 03:54:15;;;;;;;21.60;20.70;;;20.20;52.90;;;;;;4976671;28;20440;-62
2024/02/27 03:56:41;;;;;;;20.97;20.17;;;20.20;52.90;;;;;;4973203;28;20806;-61
2024/02/27 03:59:10;;;;;;;21.40;20.60;;;20.20;52.80;;;;;;4973016;28;20470;-62
2024/02/27 04:01:36;;;;;;;22.33;21.43;;;20.20;52.80;;;;;;4972842;28;20460;-62
2024/02/27 04:04:05;;;;;;;22.27;21.40;;;20.20;52.80;;;;;;4979489;28;20443;-61
2024/02/27 04:06:32;;;;;;;21.40;20.60;;;20.20;52.80;;;;;;4981825;28;20444;-62
2024/02/27 04:08:58;;;;;;;22.23;21.33;;;20.20;52.80;;;;;;4972818;28;20471;-63
2024/02/27 04:11:25;;;;;;;21.63;20.73;;;20.20;52.80;;;;;;4972587;28;20459;-63
2024/02/27 04:13:52;;;;;;;21.93;21.03;;;20.20;52.80;;;;;;4977414;28;20962;-62
2024/02/27 04:16:18;;;;;;;22.27;21.37;;;20.20;52.80;;;;;;4992402;28;20451;-63
2024/02/27 04:18:45;;;;;;;21.90;21.03;;;20.10;52.70;;;;;;4992141;28;20473;-61
2024/02/27 04:21:13;;;;;;;22.13;21.23;;;20.20;52.80;;;;;;4993883;28;20458;-62
2024/02/27 04:23:40;;;;;;;21.17;20.37;;;20.10;52.70;;;;;;4993302;28;20455;-62
2024/02/27 04:26:06;;;;;;;21.43;20.63;;;20.10;52.70;;;;;;4976811;28;20483;-62
2024/02/27 04:28:33;;;;;;;22.60;21.60;;;20.10;52.70;;;;;;4976624;28;20486;-62
2024/02/27 04:31:00;;;;;;;22.10;21.20;;;20.10;52.70;;;;;;4976472;28;20443;-62
2024/02/27 04:33:27;;;;;;;21.83;20.93;;;20.10;52.70;;;;;;4977740;28;20443;-62
2024/02/27 04:35:54;;;;;;;21.90;21.00;;;20.20;52.80;;;;;;4996053;28;20434;-62
2024/02/27 04:38:22;;;;;;;22.37;21.37;;;20.10;52.70;;;;;;4996052;28;20933;-62
2024/02/27 04:40:49;;;;;;;22.60;21.70;;;20.10;52.70;;;;;;4995860;28;20456;-62
2024/02/27 04:43:16;;;;;;;21.70;20.80;;;20.10;52.70;;;;;;4996253;28;20449;-61
2024/02/27 04:45:42;;;;;;;22.13;21.23;;;20.10;52.70;;;;;;4978890;28;20847;-62
2024/02/27 04:48:10;;;;;;;22.33;21.43;;;20.10;52.70;;;;;;4995893;28;20474;-63
2024/02/27 04:50:36;;;;;;;21.87;20.97;;;20.10;52.80;;;;;;4995573;28;21006;-62
2024/02/27 04:53:03;;;;;;;22.47;21.47;;;20.10;52.80;;;;;;4995908;28;20449;-61
2024/02/27 04:55:31;;;;;;;21.97;21.07;;;20.10;52.80;;;;;;4978938;28;20447;-62
2024/02/27 04:57:58;;;;;;;26.63;25.37;;;20.10;52.80;;;;;;4976220;28;20474;-63
2024/02/27 05:00:25;;;;;;;23.40;22.40;;;20.10;52.80;;;;;;4976035;28;20542;-62
2024/02/27 05:02:52;;;;;;;22.90;22.00;;;20.10;52.90;;;;;;4976250;28;20544;-62
2024/02/27 05:05:18;;;;;;;23.60;22.60;;;20.10;53.00;;;;;;4991142;28;20956;-62
2024/02/27 05:07:45;;;;;;;22.60;21.60;;;20.10;53.10;;;;;;4976329;28;20481;-62
2024/02/27 05:10:12;;;;;;;23.97;22.97;;;20.10;53.20;;;;;;4976082;28;20455;-62
2024/02/27 05:12:40;;;;;;;23.93;22.93;;;20.10;53.30;;;;;;4975909;28;20447;-62
2024/02/27 05:15:07;;;;;;;25.50;24.40;;;20.10;53.40;;;;;;4989159;28;20805;-62
2024/02/27 05:17:34;;;;;;;23.67;22.67;;;20.10;53.40;;;;;;4995560;28;20477;-62
2024/02/27 05:20:02;;;;;;;23.20;22.20;;;20.10;53.50;;;;;;4995240;28;20447;-62
2024/02/27 05:22:29;;;;;;;23.47;22.37;;;20.10;53.50;;;;;;4995306;28;20455;-62
2024/02/27 05:24:56;;;;;;;24.20;23.10;;;20.10;53.50;;;;;;4983248;28;20487;-62
2024/02/27 05:27:22;;;;;;;23.90;22.90;;;20.10;53.50;;;;;;4975856;28;20463;-62
2024/02/27 05:29:50;;;;;;;24.93;22.87;;;20.10;53.50;;;;;;4975471;28;20451;-62
2024/02/27 05:32:17;;;;;;;23.50;22.50;;;20.10;53.50;;;;;;4979167;28;20446;-62
2024/02/27 05:34:44;;;;;;;23.13;22.13;;;20.10;53.40;;;;;;4995203;28;20443;-62
2024/02/27 05:37:10;;;;;;;24.27;23.17;;;20.10;53.40;;;;;;4995293;28;20909;-61
2024/02/27 05:39:37;;;;;;;24.07;23.07;;;20.10;53.50;;;;;;4995065;28;20443;-63
2024/02/27 05:42:04;;;;;;;23.93;22.83;;;20.10;53.50;;;;;;4992693;28;20940;-62
2024/02/27 05:44:31;;;;;;;23.13;22.13;;;20.10;53.60;;;;;;4975462;28;20467;-61
2024/02/27 05:46:59;;;;;;;24.83;23.70;;;20.10;53.60;;;;;;4975556;28;20443;-61
2024/02/27 05:49:26;;;;;;;24.53;23.33;;;20.10;53.90;;;;;;4975492;28;20448;-62
2024/02/27 05:51:52;;;;;;;25.90;24.10;;;20.10;54.30;;;;;;4975014;28;20448;-63
2024/02/27 05:54:19;;;;;;;28.83;26.67;;;20.10;54.40;;;;;;4956016;28;20444;-62
2024/02/27 05:56:46;;;;;;;27.57;25.97;;;20.10;55.10;;;;;;4958466;28;20452;-62
2024/02/27 05:59:13;;;;;;;30.00;28.10;;;20.10;55.60;;;;;;4979297;28;20985;-61
2024/02/27 06:01:39;;;;;;;26.33;24.60;;;20.20;56.80;;;;;;4986223;28;20455;-59
2024/02/27 06:04:07;;;;;;;26.60;24.60;;;20.20;58.60;;;;;;4976019;28;20447;-62
2024/02/27 06:06:34;;;;;;;26.67;24.67;;;20.20;58.10;;;;;;4974015;28;20487;-61
2024/02/27 06:09:01;;;;;;;26.57;24.03;;;20.20;57.70;;;;;;4975004;28;20833;-61
2024/02/27 06:11:27;;;;;;;25.80;23.70;;;20.20;57.60;;;;;;4974500;28;20515;-60
2024/02/27 06:13:54;;;;;;;26.10;24.10;;;20.20;57.60;;;;;;4974957;28;20456;-60
2024/02/27 06:16:21;;;;;;;25.73;23.80;;;20.20;57.60;;;;;;4974773;28;20451;-60
2024/02/27 06:18:48;;;;;;;25.47;23.93;;;20.20;57.70;;;;;;4974704;28;20494;-60
2024/02/27 06:24:00;;;;;;;26.47;24.30;;;20.20;57.70;;;;;;4974602;28;20795;-61
2024/02/27 06:26:27;;;;;;;27.13;24.77;;;20.20;57.70;;;;;;4974639;28;20488;-61
2024/02/27 06:28:54;;;;;;;27.73;25.57;;;20.20;57.70;;;;;;4974526;28;20889;-61
2024/02/27 06:31:20;;;;;;;27.07;25.00;;;20.20;57.70;;;;;;4974042;28;20452;-61
2024/02/27 06:33:47;;;;;;;27.70;25.70;;;20.20;57.70;;;;;;4974379;28;20937;-61
2024/02/27 06:36:14;;;;;;;27.40;25.60;;;20.20;57.60;;;;;;4974483;28;20999;-61
2024/02/27 06:38:42;;;;;;;25.27;23.63;;;20.20;57.60;;;;;;4974213;28;20491;-61
2024/02/27 06:41:09;;;;;;;25.53;23.83;;;20.30;57.60;;;;;;4973905;28;20483;-62
2024/02/27 06:43:35;;;;;;;26.37;24.57;;;20.30;58.10;;;;;;4973617;28;20458;-61
2024/02/27 06:46:03;;;;;;;28.67;26.70;;;20.30;57.50;;;;;;4974327;28;20480;-61
2024/02/27 06:48:30;;;;;;;25.50;24.20;;;20.30;57.50;;;;;;4974078;28;20472;-60
2024/02/27 06:50:57;;;;;;;28.40;26.30;;;20.30;57.40;;;;;;4973901;28;20455;-60
2024/02/27 06:53:24;;;;;;;25.33;24.10;;;20.30;57.40;;;;;;4974056;28;20803;-62
2024/02/27 06:55:52;;;;;;;26.43;24.80;;;20.30;57.30;;;;;;4973891;28;20475;-61
2024/02/27 06:58:19;;;;;;;27.50;25.70;;;20.30;57.30;;;;;;4973892;28;20849;-61
2024/02/27 07:00:46;;;;;;;26.40;24.80;;;20.30;57.30;;;;;;4973481;28;20447;-62
2024/02/27 07:03:13;;;;;;;26.70;25.10;;;20.30;57.20;;;;;;4974006;28;20447;-61
2024/02/27 07:05:39;;;;;;;28.87;27.27;;;20.30;57.10;;;;;;4973660;28;20490;-61
2024/02/27 07:08:09;;;;;;;28.40;26.40;;;20.30;57.10;;;;;;4998929;23;20483;-59
2024/02/27 07:10:36;;;;;;;27.97;26.20;;;20.30;57.00;;;;;;4973034;28;20444;-60
2024/02/27 07:13:05;;;;;;;28.60;27.00;;;20.30;57.00;;;;;;4973650;28;20448;-59
2024/02/27 07:15:32;;;;;;;28.47;26.67;;;20.30;56.90;;;;;;4973354;28;20472;-59
2024/02/27 07:17:58;;;;;;;28.03;26.43;;;20.30;56.90;;;;;;4973416;28;20447;-59
2024/02/27 07:20:25;;;;;;;28.40;26.60;;;20.30;56.80;;;;;;4972924;28;20451;-59
2024/02/27 07:22:53;;;;;;;27.33;25.97;;;20.40;56.80;;;;;;4973418;28;20572;-60
2024/02/27 07:25:19;;;;;;;26.03;24.73;;;20.30;56.70;;;;;;4972986;28;20902;-59
2024/02/27 07:27:48;;;;;;;27.70;26.30;;;20.40;56.70;;;;;;4973199;28;20820;-59
2024/02/27 07:30:16;;;;;;;26.93;25.53;;;20.40;56.60;;;;;;4972968;28;20447;-58
2024/02/27 07:32:44;;;;;;;27.37;25.87;;;20.40;56.50;;;;;;4973289;28;20956;-59
2024/02/27 07:35:11;;;;;;;27.30;25.63;;;20.40;56.40;;;;;;4973067;28;20444;-59
2024/02/27 07:37:38;;;;;;;26.53;25.27;;;20.40;56.40;;;;;;4972938;28;20448;-59
2024/02/27 07:40:06;;;;;;;27.67;25.90;;;20.40;56.30;;;;;;4972693;28;20492;-59
2024/02/27 07:42:33;;;;;;;26.57;25.13;;;20.40;56.20;;;;;;4972949;28;20798;-59
2024/02/27 07:45:00;;;;;;;27.13;25.83;;;20.40;56.10;;;;;;4972917;28;20809;-59
2024/02/27 07:47:28;;;;;;;26.57;25.17;;;20.40;56.10;;;;;;4972887;28;20448;-58
2024/02/27 07:49:55;;;;;;;27.07;25.87;;;20.40;56.00;;;;;;4972505;28;20467;-57
2024/02/27 07:52:22;;;;;;;28.03;26.57;;;20.40;56.00;;;;;;4972711;28;20452;-59
2024/02/27 07:54:48;;;;;;;27.43;26.23;;;20.40;55.90;;;;;;4972193;28;20455;-59
2024/02/27 07:57:15;;;;;;;26.77;25.57;;;20.40;55.90;;;;;;4972572;28;20447;-59
2024/02/27 07:59:42;;;;;;;27.80;26.13;;;20.40;56.40;;;;;;4972575;28;20836;-59
2024/02/27 08:02:08;;;;;;;26.80;25.40;;;20.40;55.80;;;;;;4972617;28;20451;-59
2024/02/27 08:04:36;;;;;;;31.00;29.50;;;20.40;55.80;;;;;;4972572;28;20459;-59
2024/02/27 08:07:03;;;;;;;27.17;25.87;;;20.40;55.70;;;;;;4972846;28;20483;-59
2024/02/27 08:09:32;;;;;;;27.43;26.03;;;20.40;55.70;;;;;;4972483;28;20515;-60
2024/02/27 08:11:58;;;;;;;27.10;25.70;;;20.40;55.70;;;;;;4972235;28;20989;-57
2024/02/27 08:14:25;;;;;;;25.93;24.80;;;20.40;55.70;;;;;;4972527;28;20824;-60
2024/02/27 08:16:52;;;;;;;27.20;25.60;;;20.40;55.60;;;;;;4972644;28;20446;-59
2024/02/27 08:19:19;;;;;;;26.77;25.47;;;20.40;55.60;;;;;;4972551;28;20459;-59
2024/02/27 08:21:47;;;;;;;26.30;25.10;;;20.40;55.50;;;;;;4964378;28;20448;-59
2024/02/27 08:24:13;;;;;;;27.40;26.10;;;20.40;55.50;;;;;;4972510;28;20810;-58
2024/02/27 08:26:42;;;;;;;25.43;24.33;;;20.40;55.50;;;;;;4972481;28;20484;-59
2024/02/27 08:29:08;;;;;;;27.00;25.70;;;20.40;55.40;;;;;;4972454;28;20983;-57
2024/02/27 08:31:35;;;;;;;26.80;25.50;;;20.40;55.40;;;;;;4972036;28;20455;-58
2024/02/27 08:34:04;;;;;;;25.77;24.60;;;20.40;55.40;;;;;;4972552;28;20852;-58
2024/02/27 08:36:31;;;;;;;26.23;25.03;;;20.40;55.30;;;;;;4972366;28;20455;-60
2024/02/27 08:39:00;;;;;;;26.50;25.20;;;20.40;55.80;;;;;;4972190;28;20470;-61
2024/02/27 08:41:27;;;;;;;27.80;26.50;;;20.40;55.20;;;;;;4971953;28;20439;-60
2024/02/27 08:43:54;;;;;;;27.37;26.07;;;20.40;55.20;;;;;;4972487;28;20506;-58
2024/02/27 08:46:21;;;;;;;26.10;24.87;;;20.40;55.20;;;;;;4972380;28;20836;-58
2024/02/27 08:48:49;;;;;;;27.53;26.03;;;20.40;55.20;;;;;;4964419;28;20471;-58
2024/02/27 08:51:16;;;;;;;28.30;26.83;;;20.40;55.20;;;;;;4971963;28;20458;-60
2024/02/27 08:53:43;;;;;;;25.00;23.90;;;20.40;55.10;;;;;;4972184;28;20824;-58
2024/02/27 08:56:11;;;;;;;25.30;24.10;;;20.40;55.10;;;;;;4972283;28;20447;-59
2024/02/27 08:58:38;;;;;;;26.23;24.93;;;20.40;55.00;;;;;;4972101;28;20464;-57
2024/02/27 09:01:05;;;;;;;25.63;24.53;;;20.40;55.00;;;;;;4971934;28;20444;-58
2024/02/27 09:03:33;;;;;;;26.00;24.70;;;20.40;55.00;;;;;;4972120;28;20447;-58
2024/02/27 09:06:01;;;;;;;26.57;25.27;;;20.40;55.00;;;;;;4972190;28;20490;-59
2024/02/27 09:08:28;;;;;;;27.37;26.07;;;20.40;54.90;;;;;;4975484;28;20472;-60
2024/02/27 09:10:55;;;;;;;27.00;25.80;;;20.40;54.90;;;;;;4975392;28;20497;-58
2024/02/27 09:13:23;;;;;;;28.70;27.30;;;20.40;54.90;;;;;;4975777;28;20444;-58
2024/02/27 09:15:50;;;;;;;28.00;26.70;;;20.40;54.90;;;;;;4968116;28;20435;-58
2024/02/27 09:18:17;;;;;;;27.77;26.07;;;20.40;54.90;;;;;;4975642;28;20466;-59
2024/02/27 09:20:43;;;;;;;27.00;25.50;;;20.40;54.90;;;;;;4975129;28;20883;-59
2024/02/27 09:23:10;;;;;;;26.90;25.60;;;20.40;54.90;;;;;;4975460;28;20933;-59
2024/02/27 09:25:38;;;;;;;26.50;25.30;;;20.40;54.90;;;;;;4975406;28;20455;-60
2024/02/27 09:28:05;;;;;;;27.30;26.07;;;20.40;54.90;;;;;;4975357;28;20463;-59
2024/02/27 09:30:33;;;;;;;25.93;24.77;;;20.40;54.90;;;;;;4975033;28;20444;-59
2024/02/27 09:33:00;;;;;;;27.87;26.67;;;20.40;54.80;;;;;;4975386;28;20964;-58
2024/02/27 09:35:27;;;;;;;26.30;25.10;;;20.40;54.90;;;;;;4975232;28;20448;-60
2024/02/27 09:37:53;;;;;;;27.37;26.07;;;20.40;54.80;;;;;;4975116;28;20443;-60
2024/02/27 09:40:20;;;;;;;26.50;25.30;;;20.40;54.80;;;;;;4974919;28;20925;-59
2024/02/27 09:42:51;;;;;;;27.37;26.17;;;20.50;54.90;;;;;;4975084;28;20436;-56
2024/02/27 09:45:20;;;;;;;25.80;24.70;;;20.40;54.80;;;;;;4975238;28;20436;-60
2024/02/27 09:47:50;;;;;;;27.20;25.90;;;20.40;54.70;;;;;;4974831;28;20512;-60
2024/02/27 09:50:19;;;;;;;27.00;25.60;;;20.40;54.70;;;;;;4974765;28;20444;-58
2024/02/27 09:52:49;;;;;;;26.90;25.60;;;20.40;54.70;;;;;;4974932;28;20444;-60
2024/02/27 09:55:17;;;;;;;26.33;25.03;;;20.40;54.70;;;;;;4975041;28;20498;-60
2024/02/27 09:57:46;;;;;;;27.40;26.20;;;20.40;54.60;;;;;;4974855;28;20447;-59
2024/02/27 10:00:14;;;;;;;26.23;25.03;;;20.50;54.70;;;;;;4974447;28;20822;-58
2024/02/27 10:02:41;;;;;;;25.67;24.47;;;20.40;54.60;;;;;;4974776;28;20455;-59
2024/02/27 10:05:12;;;;;;;25.30;24.00;;;20.40;54.60;;;;;;4974660;28;20444;-59
2024/02/27 10:07:40;;;;;;;26.17;24.87;;;20.50;54.60;;;;;;4974694;28;20564;-58
2024/02/27 10:10:10;;;;;;;26.10;24.80;;;20.40;54.50;;;;;;4974033;28;20466;-59
2024/02/27 10:12:37;;;;;;;25.63;24.53;;;20.50;54.50;;;;;;4974501;28;20475;-59
2024/02/27 10:15:04;;;;;;;26.17;24.97;;;20.50;54.50;;;;;;4974631;28;20443;-58
2024/02/27 10:17:32;;;;;;;26.17;25.00;;;20.40;54.40;;;;;;4974355;28;20443;-59
2024/02/27 10:20:02;;;;;;;25.57;24.43;;;20.40;54.40;;;;;;4973389;28;20489;-56
2024/02/27 10:22:31;;;;;;;26.53;25.33;;;20.40;54.30;;;;;;4974213;28;20448;-59
2024/02/27 10:25:06;;;;;;;26.00;24.70;;;20.40;54.30;;;;;;4974425;28;20790;-58
2024/02/27 10:27:32;;;;;;;27.10;25.80;;;20.40;54.30;;;;;;4974186;28;20507;-59
2024/02/27 10:29:59;;;;;;;27.00;25.70;;;20.40;54.20;;;;;;4973808;28;20463;-60
2024/02/27 10:32:26;;;;;;;27.07;25.87;;;20.40;54.20;;;;;;4974143;28;20460;-59
2024/02/27 10:34:55;;;;;;;27.10;25.90;;;20.40;54.20;;;;;;4974200;28;20448;-60
2024/02/27 10:37:23;;;;;;;27.13;25.97;;;20.40;54.20;;;;;;4974236;28;20869;-60
2024/02/27 10:39:51;;;;;;;28.70;27.40;;;20.40;54.20;;;;;;4973532;28;20468;-59
2024/02/27 10:42:18;;;;;;;26.87;25.67;;;20.40;54.20;;;;;;4974008;28;20818;-59
2024/02/27 10:44:45;;;;;;;26.77;25.57;;;20.40;54.20;;;;;;4974166;28;20499;-59
2024/02/27 10:47:12;;;;;;;27.17;25.83;;;20.40;54.20;;;;;;4973966;28;20487;-59
2024/02/27 10:49:42;;;;;;;26.30;25.10;;;20.40;54.20;;;;;;4973764;28;20467;-59
2024/02/27 10:52:09;;;;;;;26.50;25.40;;;20.40;54.20;;;;;;4973541;28;20444;-59
2024/02/27 10:54:37;;;;;;;25.93;24.80;;;20.50;54.30;;;;;;4973761;28;20967;-60
2024/02/27 10:57:07;;;;;;;26.07;24.87;;;20.50;54.30;;;;;;4973755;28;20444;-58
2024/02/27 10:59:35;;;;;;;26.30;25.20;;;20.50;54.30;;;;;;4973543;28;20471;-59
2024/02/27 11:02:03;;;;;;;26.30;25.10;;;20.50;54.30;;;;;;4973344;28;20444;-59
2024/02/27 11:04:34;;;;;;;26.20;25.00;;;20.50;54.30;;;;;;4973614;28;20802;-59
2024/02/27 11:07:01;;;;;;;26.53;25.33;;;20.50;54.30;;;;;;4973573;28;20504;-59
2024/02/27 11:09:31;;;;;;;25.47;24.30;;;20.50;54.30;;;;;;4973296;28;20479;-60
2024/02/27 11:12:03;;;;;;;26.37;25.17;;;20.50;54.30;;;;;;4973184;28;20816;-60
2024/02/27 11:14:36;;;;;;;25.00;23.90;;;20.50;54.30;;;;;;4973595;28;20791;-58
2024/02/27 11:17:09;;;;;;;26.23;24.93;;;20.50;54.20;;;;;;4973506;28;20487;-59
2024/02/27 11:19:42;;;;;;;26.60;25.30;;;20.50;54.10;;;;;;4973262;28;20474;-57
2024/02/27 11:22:10;;;;;;;26.63;25.43;;;20.50;54.10;;;;;;4973231;28;20788;-59
2024/02/27 11:24:36;;;;;;;25.90;24.70;;;20.50;54.10;;;;;;4973564;28;20448;-59
2024/02/27 11:27:04;;;;;;;25.30;24.20;;;20.50;54.10;;;;;;4973232;28;20490;-58
2024/02/27 11:29:32;;;;;;;27.40;26.20;;;20.50;54.00;;;;;;4973006;28;20943;-60
2024/02/27 11:32:00;;;;;;;25.50;24.40;;;20.50;53.90;;;;;;4972788;28;20447;-59
2024/02/27 11:34:26;;;;;;;26.73;25.63;;;20.50;53.90;;;;;;4973080;28;20448;-58
2024/02/27 11:37:08;;;;;;;25.43;24.30;;;20.50;53.90;;;;;;4973073;28;20447;-58
2024/02/27 11:39:35;;;;;;;25.30;24.20;;;20.60;54.00;;;;;;4972892;28;20474;-60
2024/02/27 11:42:04;;;;;;;26.10;24.90;;;20.60;53.90;;;;;;4972823;28;20470;-58
2024/02/27 11:44:32;;;;;;;25.87;24.77;;;20.50;53.80;;;;;;4973024;28;20528;-60
2024/02/27 11:46:58;;;;;;;26.40;25.20;;;20.50;53.80;;;;;;4972836;28;20480;-58
2024/02/27 11:49:38;;;;;;;25.60;24.50;;;20.60;53.90;;;;;;4972791;28;20491;-59
2024/02/27 11:52:05;;;;;;;24.77;23.67;;;20.50;53.80;;;;;;4965830;28;20945;-59
2024/02/27 11:54:35;;;;;;;24.20;23.00;;;20.60;53.80;;;;;;4972837;28;20444;-60
2024/02/27 11:57:03;;;;;;;24.70;23.60;;;20.50;53.70;;;;;;4972944;28;20503;-60
2024/02/27 11:59:32;;;;;;;26.37;25.17;;;20.50;53.70;;;;;;4972952;28;20519;-59
2024/02/27 12:02:01;;;;;;;27.10;25.80;;;20.50;53.60;;;;;;4965070;28;20456;-59
2024/02/27 12:04:28;;;;;;;26.10;24.93;;;20.50;53.60;;;;;;4972790;28;20871;-58
2024/02/27 12:06:55;;;;;;;26.53;25.37;;;20.60;53.70;;;;;;4972702;28;20483;-61
2024/02/27 12:09:25;;;;;;;27.70;26.50;;;20.60;53.60;;;;;;4972409;28;20470;-60
2024/02/27 12:11:53;;;;;;;25.17;24.10;;;20.50;53.50;;;;;;4971863;28;20440;-59
2024/02/27 12:14:20;;;;;;;26.07;24.67;;;20.50;53.50;;;;;;4972384;28;20471;-60
2024/02/27 12:16:48;;;;;;;27.77;26.47;;;20.50;53.50;;;;;;4972389;28;20440;-59
2024/02/27 12:19:15;;;;;;;26.97;25.77;;;20.50;53.50;;;;;;4972470;28;20464;-60
2024/02/27 12:21:42;;;;;;;25.70;24.53;;;20.50;53.40;;;;;;4972156;28;20451;-59
2024/02/27 12:24:10;;;;;;;24.77;23.77;;;20.60;53.50;;;;;;4972567;28;20454;-60
2024/02/27 12:26:37;;;;;;;24.97;23.90;;;20.60;53.50;;;;;;4972352;28;20522;-59
2024/02/27 12:29:04;;;;;;;25.53;24.43;;;20.60;53.50;;;;;;4972302;28;20467;-58
2024/02/27 12:31:32;;;;;;;25.80;24.70;;;20.60;53.40;;;;;;4972057;28;20449;-60